Time;durP1;ratioP1;P1;durP2;ratioP2;P2;SDS_P1;SDS_P2;PMS_P1;PMS_P2;Temp;Humidity;BMP_temperature;BMP_pressure;BME280_temperature;BME280_humidity;BME280_pressure;Samples;Min_cycle;Max_cycle;Signal;HPM_P1;HPM_P2
2021/10/16 00:00:13;;;;;;;5.85;2.90;;;11.60;99.90;;;;;;5001288;28;20243;-68
2021/10/16 00:02:40;;;;;;;7.57;2.85;;;11.60;99.90;;;;;;5001296;28;20800;-68
2021/10/16 00:05:08;;;;;;;9.48;2.47;;;11.60;99.90;;;;;;5001651;28;20237;-68
2021/10/16 00:07:35;;;;;;;11.32;3.05;;;11.50;99.90;;;;;;5001595;28;20280;-68
2021/10/16 00:10:02;;;;;;;7.18;3.42;;;11.50;99.90;;;;;;5000753;28;20562;-68
2021/10/16 00:12:29;;;;;;;4.78;2.95;;;11.50;99.90;;;;;;5000468;28;20744;-68
2021/10/16 00:14:56;;;;;;;7.90;4.30;;;11.50;99.90;;;;;;5001646;28;20215;-68
2021/10/16 00:17:24;;;;;;;5.03;2.35;;;11.50;99.90;;;;;;5000977;28;20229;-68
2021/10/16 00:19:51;;;;;;;8.20;4.40;;;11.50;99.90;;;;;;5001028;28;20263;-68
2021/10/16 00:22:20;;;;;;;6.57;2.70;;;11.50;99.90;;;;;;5001390;28;20253;-68
2021/10/16 00:24:48;;;;;;;7.20;3.05;;;11.50;99.90;;;;;;5001147;28;20308;-68
2021/10/16 00:27:15;;;;;;;7.30;2.75;;;11.40;99.90;;;;;;5001103;28;20600;-68
2021/10/16 00:29:42;;;;;;;9.13;3.15;;;11.40;99.90;;;;;;5001171;28;20471;-68
2021/10/16 00:32:09;;;;;;;4.18;2.92;;;11.50;99.90;;;;;;5000936;28;20236;-68
2021/10/16 00:34:38;;;;;;;8.10;3.47;;;11.40;99.90;;;;;;5001182;28;20226;-68
2021/10/16 00:37:05;;;;;;;5.78;2.28;;;11.40;99.90;;;;;;5000758;28;20687;-68
2021/10/16 00:39:32;;;;;;;4.03;2.20;;;11.40;99.90;;;;;;5000925;28;20224;-68
2021/10/16 00:41:59;;;;;;;5.28;2.92;;;11.40;99.90;;;;;;5000230;28;20266;-68
2021/10/16 00:44:26;;;;;;;6.38;2.67;;;11.40;99.90;;;;;;5000601;28;20232;-68
2021/10/16 00:46:56;;;;;;;7.63;2.70;;;11.30;99.90;;;;;;5000178;28;20297;-67
2021/10/16 00:49:23;;;;;;;6.03;3.15;;;11.40;99.90;;;;;;5000596;28;20293;-67
2021/10/16 00:51:52;;;;;;;11.38;2.95;;;11.40;99.90;;;;;;4999848;28;20263;-68
2021/10/16 00:54:21;;;;;;;4.47;2.35;;;11.30;99.90;;;;;;5000439;28;20688;-68
2021/10/16 00:56:50;;;;;;;9.57;2.55;;;11.30;99.90;;;;;;5000381;28;20265;-68
2021/10/16 00:59:18;;;;;;;6.93;3.03;;;11.30;99.90;;;;;;5000168;28;20256;-68
2021/10/16 01:01:46;;;;;;;6.30;2.47;;;11.30;99.90;;;;;;5000659;28;20254;-68
2021/10/16 01:04:14;;;;;;;7.00;2.90;;;11.30;99.90;;;;;;5000102;28;20324;-68
2021/10/16 01:06:42;;;;;;;6.15;2.22;;;11.30;99.90;;;;;;5000492;28;20219;-68
2021/10/16 01:09:11;;;;;;;5.90;2.67;;;11.30;99.90;;;;;;4999630;28;20236;-68
2021/10/16 01:11:40;;;;;;;4.63;2.28;;;11.20;99.90;;;;;;5000357;28;20237;-68
2021/10/16 01:14:08;;;;;;;12.93;3.28;;;11.20;99.90;;;;;;4999712;28;20239;-68
2021/10/16 01:16:36;;;;;;;8.00;2.72;;;11.20;99.90;;;;;;5000456;28;20689;-68
2021/10/16 01:19:07;;;;;;;8.70;2.70;;;11.20;99.90;;;;;;4999880;28;20234;-68
2021/10/16 01:21:40;;;;;;;6.63;2.38;;;11.10;99.90;;;;;;4999880;28;20223;-68
2021/10/16 01:24:10;;;;;;;8.05;2.50;;;11.20;99.90;;;;;;4999252;28;20232;-68
2021/10/16 01:26:38;;;;;;;2.92;2.20;;;11.20;99.90;;;;;;5000170;28;20314;-67
2021/10/16 01:29:05;;;;;;;9.63;4.30;;;11.10;99.90;;;;;;4999721;28;20273;-67
2021/10/16 01:31:33;;;;;;;5.28;3.03;;;11.10;99.90;;;;;;4999502;28;20301;-68
2021/10/16 01:34:03;;;;;;;3.22;2.45;;;11.10;99.90;;;;;;4999631;28;20223;-68
2021/10/16 01:36:41;;;;;;;8.10;2.60;;;11.10;99.90;;;;;;4999613;28;20216;-67
2021/10/16 01:39:08;;;;;;;5.38;1.80;;;11.10;99.90;;;;;;4999689;28;20227;-68
2021/10/16 01:41:36;;;;;;;6.43;2.65;;;11.10;99.90;;;;;;4999868;28;20224;-68
2021/10/16 01:44:04;;;;;;;10.38;2.45;;;11.10;99.90;;;;;;4999466;28;20220;-68
2021/10/16 01:46:31;;;;;;;8.85;2.20;;;11.10;99.90;;;;;;4999384;28;20644;-68
2021/10/16 01:48:58;;;;;;;18.60;3.58;;;11.10;99.90;;;;;;4999150;28;20223;-68
2021/10/16 01:51:25;;;;;;;10.25;2.97;;;11.10;99.90;;;;;;4999166;28;20308;-68
2021/10/16 01:53:54;;;;;;;6.35;3.10;;;11.10;99.90;;;;;;4998962;28;20289;-68
2021/10/16 01:56:21;;;;;;;7.47;3.47;;;11.10;99.90;;;;;;4999607;28;20236;-68
2021/10/16 01:58:47;;;;;;;7.45;3.10;;;11.10;99.90;;;;;;4999445;28;20235;-68
2021/10/16 02:01:14;;;;;;;6.22;3.15;;;11.10;99.90;;;;;;4999132;28;20222;-68
2021/10/16 02:03:41;;;;;;;9.27;3.95;;;11.10;99.90;;;;;;4999685;28;20228;-68
2021/10/16 02:06:09;;;;;;;3.53;2.45;;;11.00;99.90;;;;;;4998721;28;20285;-68
2021/10/16 02:08:36;;;;;;;3.83;2.03;;;11.00;99.90;;;;;;4999187;28;20245;-68
2021/10/16 02:11:04;;;;;;;7.88;3.55;;;11.00;99.90;;;;;;4998944;28;20252;-67
2021/10/16 02:13:32;;;;;;;6.93;3.03;;;11.00;99.90;;;;;;4998966;28;20233;-68
2021/10/16 02:15:59;;;;;;;7.38;2.60;;;11.00;99.90;;;;;;4998157;28;20234;-68
2021/10/16 02:18:26;;;;;;;7.10;3.45;;;11.00;99.90;;;;;;4999204;28;20288;-68
2021/10/16 02:20:52;;;;;;;13.00;3.63;;;11.00;99.90;;;;;;4999177;28;20224;-67
2021/10/16 02:23:19;;;;;;;7.50;2.90;;;11.00;99.90;;;;;;4998362;28;20588;-67
2021/10/16 02:25:46;;;;;;;6.70;3.15;;;11.00;99.90;;;;;;4999707;28;20223;-68
2021/10/16 02:28:15;;;;;;;8.90;3.20;;;11.00;99.90;;;;;;4998478;28;20221;-68
2021/10/16 02:30:42;;;;;;;8.85;3.10;;;11.00;99.90;;;;;;4999146;28;20229;-68
2021/10/16 02:33:08;;;;;;;4.30;2.72;;;11.00;99.90;;;;;;4998687;28;20230;-68
2021/10/16 02:35:35;;;;;;;6.15;2.55;;;11.00;99.90;;;;;;4999557;28;20227;-68
2021/10/16 02:38:06;;;;;;;6.90;3.00;;;11.10;99.90;;;;;;5002741;28;20223;-68
2021/10/16 02:40:33;;;;;;;9.32;2.90;;;11.10;99.90;;;;;;5002957;28;20818;-67
2021/10/16 02:43:02;;;;;;;8.75;2.72;;;11.10;99.90;;;;;;5002981;28;20231;-67
2021/10/16 02:45:30;;;;;;;6.78;2.60;;;11.20;99.90;;;;;;5003324;28;20251;-67
2021/10/16 02:47:57;;;;;;;9.23;3.05;;;11.20;99.90;;;;;;5002313;28;20219;-67
2021/10/16 02:50:24;;;;;;;5.53;2.83;;;11.20;99.90;;;;;;5002576;28;20240;-68
2021/10/16 02:52:51;;;;;;;10.65;4.68;;;11.20;99.90;;;;;;5002662;28;20240;-67
2021/10/16 02:55:18;;;;;;;5.15;2.28;;;11.20;99.90;;;;;;5002131;28;20238;-68
2021/10/16 02:57:45;;;;;;;6.00;2.30;;;11.20;99.90;;;;;;5002507;28;20226;-68
2021/10/16 03:00:13;;;;;;;8.50;3.70;;;11.20;99.90;;;;;;5001828;28;20230;-68
2021/10/16 03:02:41;;;;;;;8.15;2.78;;;11.10;99.90;;;;;;5002523;28;20665;-68
2021/10/16 03:05:09;;;;;;;8.75;2.88;;;11.10;99.90;;;;;;5001865;28;20229;-68
2021/10/16 03:07:36;;;;;;;8.20;2.75;;;11.10;99.90;;;;;;5002619;28;20230;-68
2021/10/16 03:10:05;;;;;;;6.25;3.20;;;11.10;99.90;;;;;;5001989;28;20226;-67
2021/10/16 03:12:32;;;;;;;6.97;2.40;;;11.10;99.90;;;;;;5002239;28;20238;-68
2021/10/16 03:14:59;;;;;;;12.23;3.60;;;11.10;99.90;;;;;;5002418;28;20234;-68
2021/10/16 03:17:25;;;;;;;5.32;2.38;;;11.00;99.90;;;;;;5002303;28;20356;-68
2021/10/16 03:19:54;;;;;;;5.88;2.58;;;11.00;99.90;;;;;;5002406;28;20709;-68
2021/10/16 03:22:21;;;;;;;7.22;2.28;;;11.00;99.90;;;;;;5002033;28;20222;-68
2021/10/16 03:24:48;;;;;;;3.92;2.17;;;11.00;99.90;;;;;;5002335;28;20269;-68
2021/10/16 03:27:15;;;;;;;9.13;2.75;;;11.00;99.90;;;;;;5001802;28;20218;-68
2021/10/16 03:29:42;;;;;;;5.95;2.65;;;11.10;99.90;;;;;;5002161;28;20242;-68
2021/10/16 03:32:08;;;;;;;13.85;3.38;;;11.10;99.90;;;;;;5001697;28;20223;-68
2021/10/16 03:34:35;;;;;;;5.13;2.50;;;11.10;99.90;;;;;;5002198;28;20227;-68
2021/10/16 03:37:04;;;;;;;8.93;2.63;;;11.10;99.90;;;;;;5001636;28;20230;-68
2021/10/16 03:39:31;;;;;;;7.70;3.10;;;11.10;99.90;;;;;;5002078;28;20549;-68
2021/10/16 03:41:58;;;;;;;5.97;2.90;;;11.10;99.90;;;;;;5002106;28;20231;-68
2021/10/16 03:44:25;;;;;;;3.17;2.35;;;11.10;99.90;;;;;;5001474;28;20230;-67
2021/10/16 03:46:52;;;;;;;3.88;2.45;;;11.10;99.90;;;;;;5000698;28;20693;-68
2021/10/16 03:49:18;;;;;;;4.90;1.85;;;11.10;99.90;;;;;;5001174;28;20368;-67
2021/10/16 03:51:46;;;;;;;4.00;2.00;;;11.10;99.90;;;;;;5001358;28;20236;-67
2021/10/16 03:54:14;;;;;;;5.13;2.53;;;11.10;99.90;;;;;;5000934;28;20310;-68
2021/10/16 03:56:41;;;;;;;14.10;3.38;;;11.10;99.90;;;;;;5007010;28;20241;-68
2021/10/16 03:59:08;;;;;;;8.77;2.75;;;11.10;99.90;;;;;;4996865;28;20239;-68
2021/10/16 04:01:35;;;;;;;8.73;4.10;;;11.10;99.90;;;;;;4993449;28;20235;-68
2021/10/16 04:04:02;;;;;;;5.70;2.70;;;11.10;99.90;;;;;;4993352;28;20286;-68
2021/10/16 04:06:29;;;;;;;11.07;2.75;;;11.10;99.90;;;;;;4994314;28;20976;-68
2021/10/16 04:08:55;;;;;;;6.95;2.35;;;11.10;99.90;;;;;;4994038;28;20234;-67
2021/10/16 04:11:24;;;;;;;7.28;2.70;;;11.10;99.90;;;;;;4994112;28;20675;-68
2021/10/16 04:13:51;;;;;;;5.07;3.20;;;11.10;99.90;;;;;;4994651;28;20289;-68
2021/10/16 04:16:17;;;;;;;10.45;2.78;;;11.20;99.90;;;;;;4995039;28;20670;-67
2021/10/16 04:18:44;;;;;;;12.38;2.55;;;11.20;99.90;;;;;;4995228;28;20238;-68
2021/10/16 04:21:11;;;;;;;7.43;2.55;;;11.20;99.90;;;;;;4994806;28;20278;-68
2021/10/16 04:23:38;;;;;;;6.40;3.60;;;11.20;99.90;;;;;;4995238;28;20300;-67
2021/10/16 04:26:05;;;;;;;8.95;2.78;;;11.20;99.90;;;;;;4993666;28;20231;-68
2021/10/16 04:28:33;;;;;;;8.70;4.05;;;11.20;99.90;;;;;;4994247;28;20613;-68
2021/10/16 04:31:00;;;;;;;6.88;3.50;;;11.20;99.90;;;;;;4994868;28;20227;-68
2021/10/16 04:33:27;;;;;;;7.72;3.50;;;11.20;99.90;;;;;;4994270;28;20237;-68
2021/10/16 04:35:54;;;;;;;5.50;2.70;;;11.30;99.90;;;;;;5007784;28;20225;-68
2021/10/16 04:38:21;;;;;;;6.43;2.30;;;11.30;99.90;;;;;;5011467;28;20290;-68
2021/10/16 04:40:48;;;;;;;6.00;2.63;;;11.30;99.90;;;;;;4994849;28;20305;-68
2021/10/16 04:43:15;;;;;;;9.85;3.03;;;11.40;99.90;;;;;;5004807;28;20228;-68
2021/10/16 04:45:45;;;;;;;7.53;2.50;;;11.40;99.90;;;;;;4999653;28;20236;-68
2021/10/16 04:48:12;;;;;;;3.45;2.28;;;11.40;99.90;;;;;;4994344;28;20228;-68
2021/10/16 04:50:39;;;;;;;4.43;2.72;;;11.40;99.90;;;;;;5011168;28;20619;-68
2021/10/16 04:53:06;;;;;;;4.63;2.83;;;11.40;99.90;;;;;;5014114;28;20298;-68
2021/10/16 04:55:33;;;;;;;5.85;2.28;;;11.40;99.90;;;;;;5013620;28;21045;-67
2021/10/16 04:58:00;;;;;;;13.25;2.97;;;11.40;99.90;;;;;;5013978;28;20690;-68
2021/10/16 05:00:27;;;;;;;7.63;3.10;;;11.40;99.90;;;;;;5013304;28;20265;-67
2021/10/16 05:02:55;;;;;;;3.45;2.83;;;11.50;99.90;;;;;;5014112;28;20230;-68
2021/10/16 05:05:22;;;;;;;8.75;3.10;;;11.50;99.90;;;;;;5013731;28;20285;-68
2021/10/16 05:07:49;;;;;;;6.43;2.65;;;11.50;99.90;;;;;;5014054;28;20234;-68
2021/10/16 05:10:16;;;;;;;6.25;2.72;;;11.50;99.90;;;;;;5013310;28;20626;-67
2021/10/16 05:12:43;;;;;;;5.82;2.58;;;11.50;99.90;;;;;;5013884;28;20280;-67
2021/10/16 05:15:10;;;;;;;14.80;3.95;;;11.50;99.90;;;;;;5013615;28;20764;-67
2021/10/16 05:17:37;;;;;;;11.23;2.90;;;11.50;99.90;;;;;;5013754;28;20290;-68
2021/10/16 05:20:08;;;;;;;8.52;5.75;;;11.50;99.90;;;;;;5013762;28;20234;-68
2021/10/16 05:22:35;;;;;;;4.53;3.47;;;11.50;99.90;;;;;;5013569;28;20237;-68
2021/10/16 05:25:01;;;;;;;7.78;3.75;;;11.50;99.90;;;;;;5013530;28;20676;-67
2021/10/16 05:27:28;;;;;;;4.95;3.60;;;11.50;99.90;;;;;;5013304;28;20234;-67
2021/10/16 05:29:55;;;;;;;5.30;3.35;;;11.50;99.90;;;;;;5013636;28;20235;-68
2021/10/16 05:32:22;;;;;;;6.13;3.42;;;11.50;99.90;;;;;;5013083;28;20235;-68
2021/10/16 05:34:49;;;;;;;6.68;3.83;;;11.50;99.90;;;;;;5013569;28;20353;-68
2021/10/16 05:37:17;;;;;;;6.75;2.90;;;11.60;99.90;;;;;;5013080;28;20225;-68
2021/10/16 05:39:44;;;;;;;3.30;2.42;;;11.60;99.90;;;;;;5013366;28;20294;-67
2021/10/16 05:42:11;;;;;;;5.03;2.30;;;11.50;99.90;;;;;;5013610;28;20223;-68
2021/10/16 05:44:38;;;;;;;4.03;3.08;;;11.60;99.90;;;;;;5013164;28;20374;-68
2021/10/16 05:47:05;;;;;;;6.70;3.38;;;11.50;99.90;;;;;;5002104;28;20234;-68
2021/10/16 05:49:32;;;;;;;6.60;2.97;;;11.60;99.90;;;;;;4993196;28;20232;-68
2021/10/16 05:51:59;;;;;;;7.60;3.67;;;11.50;99.90;;;;;;4993784;28;20226;-68
2021/10/16 05:54:27;;;;;;;7.65;4.05;;;11.50;99.90;;;;;;4992932;28;20308;-67
2021/10/16 05:56:54;;;;;;;5.63;3.08;;;11.60;99.90;;;;;;4993768;28;20229;-68
2021/10/16 05:59:21;;;;;;;7.05;2.50;;;11.60;99.90;;;;;;4992926;28;20681;-68
2021/10/16 06:01:48;;;;;;;10.65;3.63;;;11.60;99.90;;;;;;4993567;28;20735;-67
2021/10/16 06:04:15;;;;;;;4.85;3.20;;;11.60;99.90;;;;;;4993122;28;20686;-67
2021/10/16 06:06:42;;;;;;;3.97;2.95;;;11.50;99.90;;;;;;4993416;28;20354;-68
2021/10/16 06:09:09;;;;;;;6.15;3.58;;;11.50;99.90;;;;;;4993338;28;20232;-68
2021/10/16 06:11:37;;;;;;;5.85;4.38;;;11.60;99.90;;;;;;4992114;28;20288;-68
2021/10/16 06:14:04;;;;;;;8.88;4.22;;;11.50;99.90;;;;;;4993245;28;20229;-68
2021/10/16 06:16:31;;;;;;;9.05;3.55;;;11.50;99.90;;;;;;4992780;28;20247;-68
2021/10/16 06:19:02;;;;;;;9.98;3.60;;;11.50;99.90;;;;;;4993109;28;20287;-68
2021/10/16 06:21:29;;;;;;;7.03;2.20;;;11.40;99.90;;;;;;4992711;28;20251;-68
2021/10/16 06:23:56;;;;;;;5.45;3.00;;;11.40;99.90;;;;;;4993250;28;20228;-68
2021/10/16 06:26:24;;;;;;;7.50;3.63;;;11.50;99.90;;;;;;5012270;28;20712;-68
2021/10/16 06:28:52;;;;;;;7.63;3.17;;;11.50;99.90;;;;;;5012783;28;20233;-68
2021/10/16 06:31:19;;;;;;;3.88;3.15;;;11.60;99.90;;;;;;5012498;28;20695;-68
2021/10/16 06:33:46;;;;;;;7.95;3.47;;;11.60;99.90;;;;;;5012515;28;20236;-68
2021/10/16 06:36:13;;;;;;;4.85;3.10;;;11.60;99.90;;;;;;5012864;28;20690;-67
2021/10/16 06:38:39;;;;;;;7.47;4.72;;;11.70;99.90;;;;;;5012139;28;20736;-70
2021/10/16 06:41:06;;;;;;;5.10;3.40;;;11.70;99.90;;;;;;5012544;28;20214;-68
2021/10/16 06:43:33;;;;;;;15.75;4.65;;;11.80;99.90;;;;;;5006798;28;20279;-68
2021/10/16 06:46:02;;;;;;;6.43;3.90;;;11.80;99.90;;;;;;4993232;28;20681;-68
2021/10/16 06:48:28;;;;;;;9.13;4.32;;;11.80;99.90;;;;;;4992493;28;20233;-67
2021/10/16 06:50:55;;;;;;;5.40;4.70;;;11.80;99.90;;;;;;5011815;28;20764;-68
2021/10/16 06:53:22;;;;;;;11.65;6.47;;;11.90;99.90;;;;;;5012259;28;20224;-68
2021/10/16 06:55:49;;;;;;;12.13;5.70;;;11.80;99.90;;;;;;5012605;28;20630;-68
2021/10/16 06:58:17;;;;;;;12.88;6.05;;;11.80;99.90;;;;;;5012409;28;20239;-68
2021/10/16 07:00:44;;;;;;;7.72;4.90;;;11.80;99.90;;;;;;5012144;28;20667;-67
2021/10/16 07:03:14;;;;;;;15.02;6.22;;;11.80;99.90;;;;;;5012453;28;20263;-67
2021/10/16 07:05:41;;;;;;;8.15;5.10;;;11.80;99.90;;;;;;5012300;28;20231;-68
2021/10/16 07:08:08;;;;;;;12.80;6.35;;;11.80;99.90;;;;;;5012499;28;20232;-68
2021/10/16 07:10:37;;;;;;;6.95;4.25;;;11.80;99.90;;;;;;5011765;28;20244;-68
2021/10/16 07:13:05;;;;;;;9.32;4.95;;;11.80;99.90;;;;;;5012569;28;20234;-68
2021/10/16 07:15:32;;;;;;;10.65;4.00;;;11.80;99.90;;;;;;5012081;28;20278;-68
2021/10/16 07:17:59;;;;;;;8.88;6.30;;;11.80;99.90;;;;;;5012395;28;20283;-68
2021/10/16 07:20:27;;;;;;;7.90;5.63;;;11.80;99.90;;;;;;5011885;28;20303;-68
2021/10/16 07:22:54;;;;;;;9.75;4.07;;;11.80;99.90;;;;;;5015026;28;20227;-68
2021/10/16 07:25:21;;;;;;;7.45;4.68;;;11.80;99.90;;;;;;5015420;28;20224;-68
2021/10/16 07:27:51;;;;;;;12.23;5.85;;;11.90;99.90;;;;;;5015793;28;20236;-69
2021/10/16 07:30:19;;;;;;;7.45;4.75;;;11.80;99.90;;;;;;5015763;28;20240;-69
2021/10/16 07:32:46;;;;;;;6.45;3.83;;;11.90;99.90;;;;;;5015163;28;20310;-70
2021/10/16 07:35:13;;;;;;;6.38;3.25;;;11.90;99.90;;;;;;5015854;28;20312;-69
2021/10/16 07:37:42;;;;;;;11.82;7.68;;;12.00;99.90;;;;;;5015410;28;20225;-69
2021/10/16 07:40:10;;;;;;;8.80;5.25;;;12.00;99.90;;;;;;5015210;28;20222;-69
2021/10/16 07:42:37;;;;;;;8.68;4.85;;;12.10;99.90;;;;;;5015153;28;20296;-70
2021/10/16 07:45:05;;;;;;;8.85;4.00;;;12.20;99.90;;;;;;4998069;28;20234;-69
2021/10/16 07:47:31;;;;;;;8.80;3.90;;;12.20;99.90;;;;;;4995440;28;20230;-69
2021/10/16 07:49:59;;;;;;;9.57;4.03;;;12.30;99.90;;;;;;5007015;28;20284;-69
2021/10/16 07:52:26;;;;;;;12.18;5.90;;;12.40;99.90;;;;;;5015050;28;20229;-70
2021/10/16 07:54:54;;;;;;;10.55;5.20;;;12.40;99.90;;;;;;5015339;28;20740;-69
2021/10/16 07:57:21;;;;;;;8.48;4.28;;;12.40;99.90;;;;;;5015310;28;20233;-69
2021/10/16 07:59:49;;;;;;;6.95;3.72;;;12.50;99.90;;;;;;5034588;28;20236;-69
2021/10/16 08:02:16;;;;;;;6.13;3.65;;;12.60;99.90;;;;;;5034829;28;20317;-70
2021/10/16 08:04:43;;;;;;;6.47;3.65;;;12.60;99.90;;;;;;5034602;28;20225;-69
2021/10/16 08:07:10;;;;;;;10.18;4.10;;;12.70;99.90;;;;;;5034944;28;20594;-69
2021/10/16 08:09:37;;;;;;;7.57;5.65;;;12.70;99.90;;;;;;5034171;28;20745;-69
2021/10/16 08:12:05;;;;;;;8.07;4.35;;;12.70;99.90;;;;;;5035063;28;20690;-69
2021/10/16 08:14:32;;;;;;;9.30;5.20;;;12.70;99.90;;;;;;5034106;28;20287;-70
2021/10/16 08:16:59;;;;;;;5.68;3.80;;;12.70;99.90;;;;;;5034834;28;20605;-70
2021/10/16 08:19:26;;;;;;;8.07;4.70;;;12.70;99.90;;;;;;5034482;28;20221;-67
2021/10/16 08:21:53;;;;;;;10.63;5.60;;;12.70;99.90;;;;;;5034678;28;20283;-69
2021/10/16 08:24:20;;;;;;;7.20;4.35;;;12.70;99.90;;;;;;5031457;28;20272;-70
2021/10/16 08:26:47;;;;;;;11.50;5.65;;;12.80;99.90;;;;;;5014468;28;20218;-70
2021/10/16 08:29:16;;;;;;;17.42;7.00;;;12.80;99.90;;;;;;5014589;28;20225;-69
2021/10/16 08:31:43;;;;;;;14.45;6.07;;;12.90;99.90;;;;;;5014321;28;20230;-69
2021/10/16 08:34:10;;;;;;;10.57;8.55;;;12.90;99.90;;;;;;5013580;28;20234;-69
2021/10/16 08:36:38;;;;;;;9.35;5.25;;;13.00;99.90;;;;;;5014099;28;20229;-68
2021/10/16 08:39:05;;;;;;;5.82;4.65;;;13.10;99.90;;;;;;5028932;28;20236;-69
2021/10/16 08:41:34;;;;;;;9.40;4.50;;;13.10;99.90;;;;;;5033603;28;20734;-67
2021/10/16 08:44:01;;;;;;;11.63;5.82;;;13.20;99.90;;;;;;5024954;28;20221;-70
2021/10/16 08:46:31;;;;;;;7.35;4.65;;;13.20;99.90;;;;;;5013940;28;20229;-67
2021/10/16 08:49:03;;;;;;;9.27;4.60;;;13.30;99.90;;;;;;5016995;28;20229;-68
2021/10/16 08:51:30;;;;;;;15.60;8.65;;;13.30;99.90;;;;;;5033702;28;20236;-69
2021/10/16 08:53:57;;;;;;;7.10;4.65;;;13.30;99.90;;;;;;5033848;28;20586;-69
2021/10/16 08:56:24;;;;;;;9.98;4.47;;;13.40;99.90;;;;;;5033944;28;20540;-69
2021/10/16 08:58:52;;;;;;;10.18;4.65;;;13.40;99.90;;;;;;5033308;28;20221;-69
2021/10/16 09:01:19;;;;;;;8.73;5.57;;;13.50;99.90;;;;;;5033971;28;20232;-67
2021/10/16 09:03:50;;;;;;;12.85;6.97;;;13.50;99.90;;;;;;5033236;28;20282;-69
2021/10/16 09:06:20;;;;;;;7.72;5.80;;;13.50;99.90;;;;;;5033795;28;20597;-70
2021/10/16 09:08:52;;;;;;;8.38;3.70;;;13.60;99.90;;;;;;5033018;28;20221;-69
2021/10/16 09:11:25;;;;;;;5.45;3.33;;;13.60;99.90;;;;;;5033563;28;20737;-69
2021/10/16 09:13:54;;;;;;;5.75;3.75;;;13.70;99.90;;;;;;5033141;28;20291;-69
2021/10/16 09:16:36;;;;;;;7.60;4.40;;;13.70;99.90;;;;;;5033693;28;20676;-68
2021/10/16 09:19:13;;;;;;;7.72;3.83;;;13.70;99.90;;;;;;5033268;28;20436;-68
2021/10/16 09:21:43;;;;;;;7.25;2.80;;;13.80;99.90;;;;;;5033295;28;20706;-68
2021/10/16 09:24:13;;;;;;;4.90;3.37;;;13.80;99.90;;;;;;5033479;28;20572;-68
2021/10/16 09:26:43;;;;;;;11.50;4.00;;;13.90;99.90;;;;;;5032975;28;20522;-69
2021/10/16 09:29:12;;;;;;;8.30;3.30;;;13.90;99.90;;;;;;5033471;28;20225;-69
2021/10/16 09:31:41;;;;;;;9.40;3.77;;;14.00;99.90;;;;;;5033165;28;21051;-68
2021/10/16 09:34:10;;;;;;;5.00;3.10;;;14.00;99.90;;;;;;5033328;28;20525;-68
2021/10/16 09:36:39;;;;;;;6.40;2.85;;;14.10;99.90;;;;;;5033122;28;20218;-68
2021/10/16 09:39:09;;;;;;;9.60;3.30;;;14.10;99.90;;;;;;5032876;28;20306;-68
2021/10/16 09:41:38;;;;;;;5.50;4.00;;;14.10;99.90;;;;;;5033306;28;20691;-69
2021/10/16 09:44:06;;;;;;;8.52;4.25;;;14.20;99.90;;;;;;5022411;28;20464;-68
2021/10/16 09:46:33;;;;;;;10.30;3.27;;;14.20;99.90;;;;;;5032315;28;20610;-69
2021/10/16 09:49:08;;;;;;;5.80;3.50;;;14.30;99.90;;;;;;5029406;28;20516;-68
2021/10/16 09:51:51;;;;;;;12.23;4.70;;;14.40;99.90;;;;;;5013296;28;20544;-68
2021/10/16 09:54:18;;;;;;;12.03;6.27;;;14.40;99.90;;;;;;5013420;28;20548;-68
2021/10/16 09:56:46;;;;;;;9.20;5.57;;;14.50;99.90;;;;;;5012918;28;20457;-68
2021/10/16 09:59:17;;;;;;;7.20;4.47;;;14.50;99.90;;;;;;5012779;28;20321;-68
2021/10/16 10:01:45;;;;;;;10.97;4.77;;;14.60;99.90;;;;;;5012928;28;20568;-68
2021/10/16 10:04:15;;;;;;;8.57;3.90;;;14.60;99.90;;;;;;4998431;28;20549;-69
2021/10/16 10:06:46;;;;;;;7.17;4.23;;;14.60;99.90;;;;;;4992994;28;20474;-70
2021/10/16 10:09:13;;;;;;;6.93;3.03;;;14.60;99.90;;;;;;4993399;28;20477;-69
2021/10/16 10:11:41;;;;;;;6.40;4.23;;;14.60;99.90;;;;;;4993084;28;20620;-70
2021/10/16 10:14:08;;;;;;;7.53;4.23;;;14.60;99.90;;;;;;4993306;28;20983;-70
2021/10/16 10:16:37;;;;;;;4.50;2.80;;;14.50;99.90;;;;;;4993004;28;20462;-69
2021/10/16 10:19:07;;;;;;;5.33;2.77;;;14.50;99.90;;;;;;4993297;28;20940;-68
2021/10/16 10:21:35;;;;;;;9.73;4.82;;;14.50;99.90;;;;;;4992822;28;20508;-68
2021/10/16 10:24:06;;;;;;;6.77;2.60;;;14.50;99.90;;;;;;4993268;28;20751;-69
2021/10/16 10:26:34;;;;;;;7.43;3.83;;;14.50;99.90;;;;;;4993268;28;20524;-70
2021/10/16 10:29:03;;;;;;;6.63;2.70;;;14.50;99.90;;;;;;4993249;28;20474;-70
2021/10/16 10:32:07;;;;;;;5.13;2.30;;;14.50;99.90;;;;;;4992958;28;20466;-69
2021/10/16 10:34:38;;;;;;;4.70;2.40;;;14.50;99.90;;;;;;4993006;28;20462;-69
2021/10/16 10:37:08;;;;;;;6.53;1.88;;;14.50;99.90;;;;;;4993184;28;20522;-69
2021/10/16 10:39:41;;;;;;;3.70;2.07;;;14.50;99.90;;;;;;5010745;28;20679;-69
2021/10/16 10:42:46;;;;;;;6.70;3.37;;;14.50;99.90;;;;;;5012733;28;20453;-69
2021/10/16 10:45:39;;;;;;;3.30;2.10;;;14.50;99.90;;;;;;4993784;28;20542;-69
2021/10/16 10:48:18;;;;;;;5.53;2.40;;;14.60;99.90;;;;;;4993127;28;20810;-69
2021/10/16 10:51:01;;;;;;;4.17;2.13;;;14.50;99.90;;;;;;5010505;28;20472;-69
2021/10/16 10:53:30;;;;;;;5.40;2.77;;;14.50;99.90;;;;;;5012854;28;20879;-69
2021/10/16 10:56:01;;;;;;;5.43;2.30;;;14.50;99.90;;;;;;5012337;28;20480;-69
2021/10/16 10:59:14;;;;;;;6.67;3.30;;;14.40;99.90;;;;;;5016250;28;20484;-69
2021/10/16 11:01:51;;;;;;;3.60;1.63;;;14.40;99.90;;;;;;5016473;28;20487;-69
2021/10/16 11:04:43;;;;;;;11.73;5.27;;;14.50;99.90;;;;;;5016246;28;20461;-69
2021/10/16 11:07:13;;;;;;;4.90;3.23;;;14.60;99.90;;;;;;5016280;28;20476;-69
2021/10/16 11:09:40;;;;;;;5.93;2.70;;;14.60;99.90;;;;;;5016113;28;20827;-69
2021/10/16 11:12:10;;;;;;;6.33;2.93;;;14.70;99.90;;;;;;5016304;28;20465;-69
2021/10/16 11:14:38;;;;;;;9.83;3.03;;;14.80;99.90;;;;;;5015842;28;20453;-69
2021/10/16 11:17:06;;;;;;;7.17;3.47;;;14.90;99.90;;;;;;5016244;28;20465;-69
2021/10/16 11:19:50;;;;;;;5.07;3.13;;;14.90;99.90;;;;;;5015594;28;20469;-69
2021/10/16 11:22:17;;;;;;;2.90;2.00;;;15.10;99.90;;;;;;5015753;28;21061;-69
2021/10/16 11:24:45;;;;;;;4.13;2.10;;;15.10;99.90;;;;;;5015975;28;20473;-69
2021/10/16 11:27:13;;;;;;;5.83;2.23;;;15.20;99.90;;;;;;5015939;28;20788;-69
2021/10/16 11:29:41;;;;;;;2.63;2.03;;;15.20;99.70;;;;;;5015335;28;20492;-69
2021/10/16 11:32:16;;;;;;;4.37;1.90;;;15.20;99.00;;;;;;5015891;28;20550;-69
2021/10/16 11:35:02;;;;;;;4.20;3.40;;;15.20;98.90;;;;;;5035299;28;20472;-69
2021/10/16 11:37:43;;;;;;;5.67;2.30;;;15.20;98.60;;;;;;5034976;28;20522;-69
2021/10/16 11:40:13;;;;;;;8.57;3.13;;;15.10;97.90;;;;;;5035207;28;20468;-69
2021/10/16 11:42:44;;;;;;;5.43;2.67;;;15.10;97.50;;;;;;5026521;28;20938;-69
2021/10/16 11:45:13;;;;;;;3.60;2.50;;;15.20;97.20;;;;;;5034271;28;20464;-69
2021/10/16 11:47:42;;;;;;;4.60;3.40;;;15.20;97.00;;;;;;5035043;28;20464;-69
2021/10/16 11:50:11;;;;;;;5.47;4.33;;;15.20;96.70;;;;;;5022511;28;20549;-70
2021/10/16 11:52:39;;;;;;;5.03;2.50;;;15.20;96.90;;;;;;5015150;28;20559;-69
2021/10/16 11:55:14;;;;;;;6.53;2.80;;;15.20;96.90;;;;;;5015217;28;20476;-67
2021/10/16 11:57:43;;;;;;;5.57;2.93;;;15.30;97.10;;;;;;5014988;28;20460;-67
2021/10/16 12:00:26;;;;;;;3.63;2.53;;;15.30;97.20;;;;;;5015044;28;20543;-67
2021/10/16 12:02:54;;;;;;;3.60;2.27;;;15.30;97.30;;;;;;5015124;28;20461;-67
2021/10/16 12:05:23;;;;;;;8.10;2.90;;;15.30;97.30;;;;;;5015126;28;20604;-68
2021/10/16 12:07:51;;;;;;;2.70;2.03;;;15.30;97.30;;;;;;5013890;28;20856;-68
2021/10/16 12:10:20;;;;;;;3.73;2.90;;;15.30;97.20;;;;;;5014632;28;20480;-68
2021/10/16 12:13:04;;;;;;;5.50;3.07;;;15.20;97.30;;;;;;5014719;28;20480;-68
2021/10/16 12:15:43;;;;;;;3.47;2.70;;;15.20;97.60;;;;;;5014599;28;20465;-68
2021/10/16 12:18:18;;;;;;;6.27;3.27;;;15.20;98.00;;;;;;5018020;28;20472;-68
2021/10/16 12:20:48;;;;;;;6.40;4.67;;;15.20;98.20;;;;;;5034120;28;20472;-68
2021/10/16 12:23:16;;;;;;;6.23;2.83;;;15.10;98.40;;;;;;5034468;28;20468;-68
2021/10/16 12:25:44;;;;;;;4.77;3.00;;;15.20;98.30;;;;;;5034260;28;20468;-68
2021/10/16 12:28:13;;;;;;;3.20;2.70;;;15.20;98.00;;;;;;5034601;28;20575;-68
2021/10/16 12:31:01;;;;;;;3.60;2.43;;;15.30;97.80;;;;;;5033892;28;20547;-68
2021/10/16 12:33:28;;;;;;;5.43;3.50;;;15.20;97.50;;;;;;5034264;28;20844;-68
2021/10/16 12:36:00;;;;;;;5.03;3.30;;;15.20;98.10;;;;;;5034351;28;20452;-68
2021/10/16 12:38:27;;;;;;;5.50;3.17;;;15.30;97.80;;;;;;5034242;28;20529;-68
2021/10/16 12:40:55;;;;;;;3.20;2.90;;;15.20;97.90;;;;;;5033914;28;20539;-68
2021/10/16 12:43:28;;;;;;;5.13;4.00;;;15.30;98.30;;;;;;5030363;28;20560;-68
2021/10/16 12:45:56;;;;;;;5.73;2.57;;;15.30;98.00;;;;;;5014226;28;20471;-70
2021/10/16 12:48:31;;;;;;;4.80;3.00;;;15.30;98.00;;;;;;5014213;28;20680;-68
2021/10/16 12:51:01;;;;;;;6.50;3.30;;;15.30;98.30;;;;;;5033555;28;20483;-68
2021/10/16 12:53:28;;;;;;;6.03;3.20;;;15.30;98.10;;;;;;5033938;28;20988;-67